Time;durP1;ratioP1;P1;durP2;ratioP2;P2;SDS_P1;SDS_P2;PMS_P1;PMS_P2;Temp;Humidity;BMP_temperature;BMP_pressure;BME280_temperature;BME280_humidity;BME280_pressure;Samples;Min_cycle;Max_cycle;Signal;HPM_P1;HPM_P2
2021/06/23 00:00:26;;;;;;;31.03;9.57;;;;;;;26.31;55.55;95008.47;5091181;28;20199;-70
2021/06/23 00:02:54;;;;;;;34.63;10.30;;;;;;;26.23;55.29;95005.94;5071197;28;20265;-74
2021/06/23 00:05:22;;;;;;;33.87;10.27;;;;;;;26.26;55.46;95008.72;5082953;28;20225;-74
2021/06/23 00:07:50;;;;;;;40.73;9.53;;;;;;;26.25;56.06;95015.22;5086519;28;20211;-69
2021/06/23 00:10:19;;;;;;;29.47;10.67;;;;;;;26.02;56.45;95017.00;5081267;28;20199;-72
2021/06/23 00:12:49;;;;;;;38.50;10.33;;;;;;;26.01;56.51;95031.53;5076727;28;20242;-67
2021/06/23 00:15:18;;;;;;;39.27;10.23;;;;;;;26.02;56.20;95017.75;5089513;28;20282;-68
2021/06/23 00:17:45;;;;;;;36.93;9.27;;;;;;;26.03;56.18;95035.44;5090772;28;20275;-66
2021/06/23 00:20:14;;;;;;;36.60;10.87;;;;;;;26.15;56.13;95042.63;5090628;28;20209;-69
2021/06/23 00:22:40;;;;;;;29.50;9.47;;;;;;;26.10;56.48;95037.53;5091687;28;20260;-71
2021/06/23 00:25:08;;;;;;;37.87;10.57;;;;;;;25.97;56.00;95033.34;5092251;28;20198;-67
2021/06/23 00:27:35;;;;;;;31.67;10.00;;;;;;;26.22;55.99;95036.66;5092345;28;20199;-68
2021/06/23 00:30:03;;;;;;;33.77;10.53;;;;;;;26.23;55.85;95036.28;5090965;28;20238;-66
2021/06/23 00:32:34;;;;;;;38.83;11.37;;;;;;;26.05;56.04;95037.81;5090256;28;20195;-72
2021/06/23 00:35:03;;;;;;;37.00;9.83;;;;;;;25.89;56.65;95045.06;5088799;28;20211;-66
2021/06/23 00:37:29;;;;;;;34.50;9.83;;;;;;;25.83;57.70;95038.41;5092342;28;20195;-70
2021/06/23 00:39:56;;;;;;;34.70;10.40;;;;;;;25.80;57.77;95031.06;5091726;28;20293;-69
2021/06/23 00:42:24;;;;;;;35.40;10.47;;;;;;;26.07;57.13;95030.19;5091856;28;20198;-69
2021/06/23 00:44:53;;;;;;;33.27;10.20;;;;;;;26.11;56.67;95025.66;5091197;28;20210;-71
2021/06/23 00:47:24;;;;;;;38.60;10.57;;;;;;;25.95;57.31;95038.28;5070557;28;20248;-70
2021/06/23 00:49:51;;;;;;;27.97;9.47;;;;;;;25.83;57.20;95006.19;5075798;28;20204;-72
2021/06/23 00:52:48;;;;;;;33.03;11.30;;;;;;;25.94;57.10;95026.78;5064634;28;20292;-68
2021/06/23 00:55:30;;;;;;;40.80;9.80;;;;;;;25.80;56.75;95031.06;5083798;28;20203;-71
2021/06/23 00:57:57;;;;;;;38.03;9.57;;;;;;;25.51;56.84;95012.72;5077739;28;20209;-71
2021/06/23 01:00:31;;;;;;;38.20;10.37;;;;;;;25.81;56.73;95016.50;5089374;28;20195;-72
2021/06/23 01:03:05;;;;;;;31.20;9.53;;;;;;;25.75;56.35;95015.97;5075512;28;20194;-69
2021/06/23 01:05:35;;;;;;;33.60;9.63;;;;;;;25.64;57.08;95008.78;5075769;28;20235;-70
2021/06/23 01:08:08;;;;;;;34.53;10.20;;;;;;;25.69;57.23;95020.03;5070473;28;20203;-71
2021/06/23 01:10:37;;;;;;;36.67;9.80;;;;;;;25.63;57.78;95015.28;5078285;28;20208;-68
2021/06/23 01:13:22;;;;;;;34.20;10.23;;;;;;;25.82;57.35;95010.75;5075815;28;20215;-72
2021/06/23 01:15:53;;;;;;;35.63;9.63;;;;;;;25.93;56.77;95014.47;5087682;28;20203;-71
2021/06/23 01:18:22;;;;;;;32.17;10.13;;;;;;;26.02;56.58;95004.31;5090117;28;20200;-68
2021/06/23 01:20:49;;;;;;;28.23;9.83;;;;;;;26.21;55.90;95005.53;5087690;28;20206;-71
2021/06/23 01:23:17;;;;;;;31.50;9.50;;;;;;;26.27;55.45;95006.81;5091495;28;20199;-69
2021/06/23 01:25:46;;;;;;;30.43;8.43;;;;;;;25.97;56.20;95009.97;5090889;28;20252;-67
2021/06/23 01:28:13;;;;;;;31.30;9.10;;;;;;;25.72;56.77;95007.84;5091111;28;20252;-69
2021/06/23 01:30:50;;;;;;;28.47;9.60;;;;;;;25.46;58.09;95004.91;5087293;28;20250;-69
2021/06/23 01:33:25;;;;;;;30.60;10.13;;;;;;;25.46;57.98;95010.25;5088501;28;20210;-68
2021/06/23 01:35:53;;;;;;;37.87;10.27;;;;;;;25.36;57.86;94983.94;5088722;28;20215;-72
2021/06/23 01:38:22;;;;;;;28.73;9.53;;;;;;;25.29;58.08;94997.19;5076892;28;20235;-66
2021/06/23 01:40:50;;;;;;;28.53;8.53;;;;;;;25.42;57.36;94996.00;5072523;28;20214;-71
2021/06/23 01:43:17;;;;;;;29.17;8.47;;;;;;;25.54;56.94;95006.63;5082454;28;20195;-68
2021/06/23 01:45:47;;;;;;;31.77;9.17;;;;;;;25.59;56.55;95009.06;5073083;28;20191;-69
2021/06/23 01:48:20;;;;;;;31.23;9.00;;;;;;;25.49;56.67;95004.97;5089505;28;20765;-69
2021/06/23 01:51:05;;;;;;;30.20;9.10;;;;;;;25.48;56.34;95013.38;5088480;28;20219;-72
2021/06/23 01:53:37;;;;;;;27.83;8.80;;;;;;;25.22;56.89;95016.53;5088256;28;20240;-71
2021/06/23 01:56:05;;;;;;;33.17;9.17;;;;;;;25.16;57.26;95014.47;5087568;28;20199;-69
2021/06/23 01:58:38;;;;;;;23.00;8.07;;;;;;;25.08;57.28;95019.66;5089566;28;21026;-68
2021/06/23 02:01:59;;;;;;;27.70;8.90;;;;;;;25.24;56.88;95019.66;5059959;28;20211;-71
2021/06/23 02:05:11;;;;;;;33.30;9.97;;;;;;;24.91;57.90;95032.56;5068573;28;20227;-73
2021/06/23 02:07:59;;;;;;;36.07;9.27;;;;;;;25.04;57.52;95034.84;5086667;28;20343;-70
2021/06/23 02:10:34;;;;;;;30.20;9.27;;;;;;;24.78;58.16;95041.78;5089170;28;20589;-70
2021/06/23 02:13:28;;;;;;;30.47;11.10;;;;;;;24.92;57.59;95040.28;5069242;28;20694;-67
2021/06/23 02:16:16;;;;;;;26.60;8.57;;;;;;;24.83;57.40;95042.34;5068026;28;20254;-67
2021/06/23 02:18:44;;;;;;;33.50;8.93;;;;;;;24.90;57.61;95037.16;5077127;28;20235;-67
2021/06/23 02:21:25;;;;;;;41.03;11.93;;;;;;;24.97;57.00;95037.34;5087694;28;20203;-71
2021/06/23 02:23:53;;;;;;;35.63;10.03;;;;;;;24.00;59.35;95025.28;5074558;28;20196;-69
2021/06/23 02:26:24;;;;;;;33.83;9.37;;;;;;;24.42;58.62;95037.28;5088175;28;20733;-71
2021/06/23 02:28:52;;;;;;;35.43;8.67;;;;;;;24.60;57.78;95043.13;5088400;28;20251;-70
2021/06/23 02:31:19;;;;;;;35.90;9.50;;;;;;;24.73;57.54;95042.81;5121352;28;20597;-69
2021/06/23 02:33:54;;;;;;;31.73;8.93;;;;;;;24.51;58.12;95040.59;5088700;28;20258;-71
2021/06/23 02:36:32;;;;;;;31.73;8.60;;;;;;;24.00;60.04;95050.19;5087948;28;20203;-73
2021/06/23 02:39:00;;;;;;;26.97;8.80;;;;;;;24.43;58.95;95049.56;5071724;28;20654;-70
2021/06/23 02:41:27;;;;;;;37.17;10.63;;;;;;;24.53;58.42;95054.44;5070882;28;20290;-71
2021/06/23 02:43:55;;;;;;;38.80;11.07;;;;;;;24.43;58.43;95054.13;5090043;28;20229;-67
2021/06/23 02:46:30;;;;;;;33.70;9.73;;;;;;;24.40;58.92;95052.91;5092743;28;20284;-68
2021/06/23 02:49:10;;;;;;;35.83;10.03;;;;;;;24.57;58.22;95054.53;5090642;28;20234;-71
2021/06/23 02:51:43;;;;;;;31.77;9.43;;;;;;;24.72;57.56;95060.00;5092535;28;20192;-68
2021/06/23 02:54:11;;;;;;;36.27;9.27;;;;;;;24.88;57.54;95060.84;5077855;28;20238;-70
2021/06/23 02:57:00;;;;;;;33.90;9.80;;;;;;;24.84;57.33;95059.16;5071078;28;20226;-70
2021/06/23 02:59:29;;;;;;;40.30;9.40;;;;;;;24.75;57.50;95067.38;5085879;28;20779;-67
2021/06/23 03:01:57;;;;;;;35.27;9.50;;;;;;;24.89;57.18;95067.75;5083153;28;20284;-67
2021/06/23 03:04:24;;;;;;;32.70;9.37;;;;;;;24.87;57.02;95066.56;5076272;28;20203;-68
2021/06/23 03:07:17;;;;;;;28.37;8.93;;;;;;;24.75;57.23;95069.25;5089809;28;20218;-68
2021/06/23 03:09:49;;;;;;;33.27;8.77;;;;;;;24.62;57.16;95071.16;5092104;28;20206;-69
2021/06/23 03:12:36;;;;;;;32.47;9.30;;;;;;;24.55;57.71;95076.31;5091379;28;20648;-70
2021/06/23 03:15:24;;;;;;;30.93;9.20;;;;;;;24.51;57.50;95088.81;5075958;28;20234;-68
2021/06/23 03:18:00;;;;;;;29.40;9.17;;;;;;;24.45;58.11;95090.16;5084216;28;20212;-68
2021/06/23 03:20:27;;;;;;;33.07;9.43;;;;;;;24.52;58.19;95101.13;5087439;28;20203;-72
2021/06/23 03:22:56;;;;;;;41.60;10.13;;;;;;;24.54;58.23;95103.47;5079753;28;20317;-67
2021/06/23 03:25:24;;;;;;;32.20;9.87;;;;;;;24.64;58.40;95098.41;5086631;28;20265;-68
2021/06/23 03:27:53;;;;;;;28.57;9.50;;;;;;;24.60;58.06;95100.19;5090895;28;20757;-66
2021/06/23 03:30:23;;;;;;;39.67;9.67;;;;;;;24.44;58.53;95104.69;5091165;28;20295;-66
2021/06/23 03:32:51;;;;;;;33.80;9.77;;;;;;;24.54;58.26;95098.84;5091468;28;20287;-67
2021/06/23 03:35:21;;;;;;;36.53;10.10;;;;;;;24.43;58.64;95103.16;5086049;28;20660;-68
2021/06/23 03:37:50;;;;;;;34.00;10.27;;;;;;;24.35;59.29;95112.06;5081229;28;20192;-68
2021/06/23 03:40:19;;;;;;;37.53;10.97;;;;;;;24.51;58.48;95115.63;5075234;28;20210;-71
2021/06/23 03:42:48;;;;;;;30.53;10.40;;;;;;;24.25;57.88;95112.50;5091802;28;20492;-66
2021/06/23 03:45:19;;;;;;;36.03;11.20;;;;;;;24.44;57.89;95120.75;5090023;28;20195;-67
2021/06/23 03:47:46;;;;;;;42.07;11.27;;;;;;;24.54;57.39;95109.56;5075227;28;20668;-71
2021/06/23 03:50:16;;;;;;;40.70;11.20;;;;;;;;;;5085745;28;20226;-69
2021/06/23 03:52:47;;;;;;;40.10;11.20;;;;;;;24.19;58.25;95115.75;5082094;28;20191;-73
2021/06/23 03:55:20;;;;;;;32.90;10.67;;;;;;;24.13;58.53;95125.91;5089516;28;20218;-70
2021/06/23 03:57:49;;;;;;;37.63;10.47;;;;;;;24.18;58.40;95128.38;5083093;28;20564;-70
2021/06/23 04:00:18;;;;;;;33.00;10.43;;;;;;;24.37;58.06;95119.75;5085559;28;20188;-66
2021/06/23 04:02:46;;;;;;;31.00;10.17;;;;;;;23.63;59.73;95133.44;5089668;28;20709;-67
2021/06/23 04:05:16;;;;;;;35.60;9.90;;;;;;;24.26;58.29;95135.50;5090080;28;20233;-68
2021/06/23 04:07:46;;;;;;;32.17;11.00;;;;;;;24.41;57.81;95137.53;5088977;28;20278;-71
2021/06/23 04:10:13;;;;;;;33.67;11.17;;;;;;;24.62;57.25;95130.13;5079505;28;20206;-67
2021/06/23 04:12:41;;;;;;;35.07;11.47;;;;;;;24.38;58.57;95130.13;5085878;28;20199;-72
2021/06/23 04:15:13;;;;;;;39.53;10.17;;;;;;;24.47;58.40;95136.16;5090019;28;20299;-68
2021/06/23 04:17:43;;;;;;;34.73;10.70;;;;;;;24.61;58.16;95141.97;5086167;28;20270;-68
2021/06/23 04:20:15;;;;;;;35.87;11.03;;;;;;;24.88;58.24;95141.25;5090591;28;20187;-71
2021/06/23 04:23:12;;;;;;;36.87;11.23;;;;;;;25.31;57.90;95150.50;5082651;28;20217;-69
2021/06/23 04:25:39;;;;;;;37.57;11.10;;;;;;;25.34;56.97;95141.78;5089009;28;20653;-70
2021/06/23 04:28:06;;;;;;;36.90;11.47;;;;;;;25.33;57.11;95145.59;5090491;28;20203;-69
2021/06/23 04:30:34;;;;;;;39.80;11.93;;;;;;;25.25;57.69;95138.47;5088504;28;20234;-72
2021/06/23 04:33:03;;;;;;;45.07;12.20;;;;;;;25.29;57.30;95140.09;5089202;28;20195;-68
2021/06/23 04:35:39;;;;;;;42.07;12.70;;;;;;;25.25;57.09;95143.81;5089711;28;20237;-69
2021/06/23 04:38:06;;;;;;;35.93;12.33;;;;;;;25.00;57.87;95143.91;5078319;28;20203;-68
2021/06/23 04:40:34;;;;;;;40.77;12.30;;;;;;;25.17;57.90;95142.84;5083904;28;20211;-70
2021/06/23 04:43:01;;;;;;;65.33;35.93;;;;;;;25.42;58.30;95148.94;5068440;28;20231;-66
2021/06/23 04:45:29;;;;;;;104.50;75.70;;;;;;;25.58;57.98;95147.06;5081049;28;20195;-69
2021/06/23 04:47:59;;;;;;;45.30;21.33;;;;;;;25.53;57.51;95150.75;5067982;28;20207;-68
2021/06/23 04:50:31;;;;;;;50.40;14.23;;;;;;;25.34;57.82;95153.28;5069748;28;20689;-75
2021/06/23 04:53:04;;;;;;;38.23;12.00;;;;;;;25.64;56.58;95159.09;5071192;28;20204;-67
2021/06/23 04:55:31;;;;;;;34.77;11.77;;;;;;;25.70;56.83;95155.03;5092962;27;20223;-70
2021/06/23 04:58:06;;;;;;;36.77;11.77;;;;;;;25.59;57.02;95156.66;5084585;28;20657;-70
2021/06/23 05:00:36;;;;;;;33.60;10.53;;;;;;;25.83;55.90;95161.91;5088352;28;20213;-70
2021/06/23 05:03:07;;;;;;;36.93;11.37;;;;;;;25.74;56.15;95155.91;5088859;28;20227;-71
2021/06/23 05:05:35;;;;;;;74.70;44.80;;;;;;;25.88;55.68;95156.25;5089890;28;20282;-74
2021/06/23 05:08:02;;;;;;;47.33;15.50;;;;;;;25.66;55.81;95159.53;5078376;28;20197;-69
2021/06/23 05:10:29;;;;;;;73.40;47.93;;;;;;;25.69;55.83;95158.84;5089229;28;20199;-68
2021/06/23 05:12:56;;;;;;;37.07;12.00;;;;;;;25.82;55.85;95163.03;5089557;28;20187;-74
2021/06/23 05:15:23;;;;;;;36.10;12.30;;;;;;;25.79;55.97;95163.69;5081370;28;20790;-69
2021/06/23 05:17:51;;;;;;;37.80;11.30;;;;;;;25.81;55.76;95156.88;5086006;28;20205;-77
2021/06/23 05:20:19;;;;;;;50.70;15.63;;;;;;;25.94;55.33;95165.63;5088898;28;20210;-68
2021/06/23 05:22:49;;;;;;;46.53;11.27;;;;;;;26.03;54.69;95163.56;5089559;28;20194;-72
2021/06/23 05:25:20;;;;;;;34.07;11.17;;;;;;;25.94;55.14;95165.63;5085068;28;20213;-73
2021/06/23 05:27:48;;;;;;;30.93;10.70;;;;;;;26.10;54.50;95166.44;5083518;28;20240;-72
2021/06/23 05:30:16;;;;;;;48.17;12.17;;;;;;;26.09;54.70;95162.22;5081032;28;20253;-70
2021/06/23 05:32:43;;;;;;;46.07;10.77;;;;;;;26.12;54.89;95164.19;5086408;28;20198;-70
2021/06/23 05:35:10;;;;;;;49.77;12.10;;;;;;;26.07;54.96;95167.16;5088010;28;20219;-70
2021/06/23 05:37:37;;;;;;;40.77;12.07;;;;;;;26.06;55.19;95157.50;5081910;28;20195;-67
2021/06/23 05:40:05;;;;;;;36.57;11.27;;;;;;;25.94;54.37;95169.09;5083929;28;20209;-68
2021/06/23 05:42:32;;;;;;;46.77;11.07;;;;;;;26.19;54.93;95168.94;5089945;28;20217;-70
2021/06/23 05:44:59;;;;;;;43.10;11.53;;;;;;;26.20;55.28;95171.31;5077533;28;20192;-73
2021/06/23 05:47:26;;;;;;;45.47;11.30;;;;;;;26.35;55.27;95173.19;5088415;28;20664;-70
2021/06/23 05:49:52;;;;;;;46.23;11.20;;;;;;;26.43;54.62;95166.88;5089688;28;20199;-71
2021/06/23 05:52:19;;;;;;;41.30;10.50;;;;;;;26.25;55.48;95176.41;5075502;28;20195;-75
2021/06/23 05:54:46;;;;;;;38.17;10.77;;;;;;;26.29;54.98;95168.44;5089976;28;20601;-72
2021/06/23 05:57:13;;;;;;;48.67;11.93;;;;;;;26.16;54.87;95175.81;5090766;28;20194;-77
2021/06/23 05:59:42;;;;;;;50.63;11.83;;;;;;;26.40;54.05;95162.19;5090053;28;20575;-69
2021/06/23 06:02:09;;;;;;;47.63;11.23;;;;;;;26.41;54.98;95158.38;5090091;28;20669;-70
2021/06/23 06:04:36;;;;;;;47.70;10.67;;;;;;;26.55;54.74;95166.75;5122489;27;20188;-70
2021/06/23 06:07:03;;;;;;;42.67;10.30;;;;;;;26.89;54.36;95170.63;5091023;28;20211;-70
2021/06/23 06:09:30;;;;;;;52.13;12.87;;;;;;;27.07;52.99;95169.09;5089787;28;20187;-72
2021/06/23 06:11:57;;;;;;;59.10;12.00;;;;;;;26.54;54.47;95170.59;5091008;28;20264;-71
2021/06/23 06:14:24;;;;;;;45.07;11.53;;;;;;;26.54;53.84;95175.97;5092598;28;20219;-69
2021/06/23 06:16:51;;;;;;;37.77;11.13;;;;;;;26.68;54.42;95168.25;5092697;28;20557;-68
2021/06/23 06:19:18;;;;;;;42.20;11.20;;;;;;;26.53;53.51;95179.75;5093358;28;20282;-67
2021/06/23 06:21:47;;;;;;;45.53;11.33;;;;;;;26.71;53.25;95180.22;5093336;28;20676;-73
2021/06/23 06:24:14;;;;;;;53.27;12.00;;;;;;;26.81;53.02;95183.13;5094335;28;20244;-71
2021/06/23 06:26:40;;;;;;;39.50;10.60;;;;;;;26.92;53.37;95189.53;5094506;28;20184;-67
2021/06/23 06:29:08;;;;;;;50.63;12.70;;;;;;;26.81;54.18;95183.13;5092720;28;20195;-72
2021/06/23 06:31:34;;;;;;;48.00;11.90;;;;;;;26.75;54.61;95184.53;5093038;28;20258;-74
2021/06/23 06:34:02;;;;;;;41.53;12.17;;;;;;;27.11;54.44;95183.41;5092644;28;20207;-66
2021/06/23 06:36:29;;;;;;;45.90;11.83;;;;;;;27.16;54.15;95193.09;5093259;28;20202;-69
2021/06/23 06:38:56;;;;;;;39.50;12.70;;;;;;;27.13;54.53;95194.59;5073712;28;20195;-73
2021/06/23 06:41:22;;;;;;;46.77;12.33;;;;;;;27.21;54.74;95185.50;5072901;28;20199;-72
2021/06/23 06:43:49;;;;;;;45.97;12.13;;;;;;;27.40;54.62;95184.78;5087024;28;20254;-70
2021/06/23 06:46:16;;;;;;;40.17;13.00;;;;;;;27.30;54.57;95182.63;5073369;28;20196;-75
2021/06/23 06:48:43;;;;;;;37.33;11.57;;;;;;;27.53;54.60;95194.28;5072578;28;20204;-69
2021/06/23 06:51:10;;;;;;;43.57;11.63;;;;;;;27.53;52.90;95192.38;5080181;28;20206;-70
2021/06/23 06:53:37;;;;;;;38.33;12.40;;;;;;;27.56;53.04;95196.25;5092958;28;20664;-70
2021/06/23 06:56:04;;;;;;;41.97;12.50;;;;;;;27.62;52.43;95194.84;5072587;28;20214;-73
2021/06/23 06:58:31;;;;;;;42.83;11.57;;;;;;;27.45;53.42;95193.34;5084233;28;20213;-73
2021/06/23 07:00:58;;;;;;;42.30;11.37;;;;;;;27.77;52.72;95188.59;5077690;28;20270;-69
2021/06/23 07:03:25;;;;;;;40.17;11.23;;;;;;;27.57;51.83;95197.81;5080678;28;20191;-69
2021/06/23 07:05:52;;;;;;;42.37;11.53;;;;;;;27.79;51.99;95202.47;5085907;28;20233;-71
2021/06/23 07:08:19;;;;;;;53.70;13.67;;;;;;;27.79;51.78;95207.88;5081331;28;20203;-74
2021/06/23 07:10:45;;;;;;;37.10;11.20;;;;;;;28.04;51.73;95197.56;5077693;28;20196;-70
2021/06/23 07:13:12;;;;;;;40.80;11.77;;;;;;;28.07;51.57;95194.91;5092598;28;20199;-73
2021/06/23 07:15:39;;;;;;;44.33;12.07;;;;;;;28.10;52.96;95194.22;5078105;28;20689;-71
2021/06/23 07:18:06;;;;;;;39.80;11.70;;;;;;;28.39;52.37;95196.25;5086388;28;20605;-71
2021/06/23 07:20:33;;;;;;;48.80;11.90;;;;;;;28.59;51.24;95195.06;5089186;28;20199;-71
2021/06/23 07:23:00;;;;;;;46.37;11.90;;;;;;;28.69;50.31;95189.03;5092398;28;20600;-72
2021/06/23 07:25:27;;;;;;;41.70;12.07;;;;;;;28.99;50.08;95189.84;5091330;28;20746;-70
2021/06/23 07:27:59;;;;;;;45.57;11.90;;;;;;;28.95;50.02;95197.13;5091782;28;20199;-67
2021/06/23 07:30:27;;;;;;;38.90;11.43;;;;;;;28.87;51.09;95194.69;5091357;28;20297;-74
2021/06/23 07:33:01;;;;;;;43.80;11.57;;;;;;;28.90;49.91;95194.72;5090927;28;20569;-70
2021/06/23 07:38:14;;;;;;;46.03;11.23;;;;;;;29.06;49.19;95191.88;5092002;28;20709;-73
2021/06/23 07:43:21;;;;;;;43.27;11.30;;;;;;;29.07;48.80;95192.66;5091779;28;20191;-71
2021/06/23 07:45:52;;;;;;;39.63;12.40;;;;;;;29.26;48.48;95185.22;5091056;28;20661;-71
2021/06/23 07:48:22;;;;;;;47.00;11.70;;;;;;;29.37;49.08;95188.06;5091755;28;20199;-71
2021/06/23 07:51:05;;;;;;;41.83;10.67;;;;;;;29.43;49.66;95194.69;5091005;28;20191;-73
2021/06/23 07:54:18;;;;;;;47.93;12.50;;;;;;;29.48;49.04;95189.75;5091410;28;20203;-70
2021/06/23 08:10:11;;;;;;;55.20;15.40;;;;;;;30.34;47.09;95195.72;5058237;28;20215;-71
2021/06/23 08:15:22;;;;;;;43.40;13.63;;;;;;;30.41;47.30;95195.78;5078769;28;20223;-72
2021/06/23 08:17:49;;;;;;;44.03;12.63;;;;;;;30.51;46.12;95205.13;5087621;28;20665;-70
2021/06/23 08:20:17;;;;;;;52.77;11.13;;;;;;;30.43;45.88;95193.47;5090338;28;20199;-73
2021/06/23 08:22:44;;;;;;;43.97;10.30;;;;;;;30.34;42.43;95198.41;5091149;28;20237;-73
2021/06/23 08:25:11;;;;;;;43.07;9.43;;;;;;;30.45;40.57;95199.28;5090315;28;20206;-68
2021/06/23 08:27:39;;;;;;;43.27;10.33;;;;;;;30.92;41.39;95203.13;5090967;28;20733;-71
2021/06/23 08:30:09;;;;;;;52.10;10.33;;;;;;;31.07;40.58;95194.72;5090570;28;20239;-69
2021/06/23 08:32:36;;;;;;;41.60;10.97;;;;;;;31.20;42.64;95206.00;5091032;28;20187;-67
2021/06/23 08:35:05;;;;;;;48.30;10.67;;;;;;;31.31;41.37;95201.41;5090199;28;20230;-71
2021/06/23 08:37:32;;;;;;;41.77;10.37;;;;;;;31.35;42.29;95194.09;5083002;28;20195;-74
2021/06/23 08:39:59;;;;;;;54.03;11.53;;;;;;;31.47;42.13;95191.84;5083517;28;20214;-70
2021/06/23 08:42:26;;;;;;;42.07;9.87;;;;;;;31.74;40.75;95212.09;5076017;28;20199;-72
2021/06/23 08:44:53;;;;;;;43.73;9.87;;;;;;;31.82;39.43;95200.09;5078405;28;20196;-68
2021/06/23 08:47:23;;;;;;;49.30;10.20;;;;;;;31.92;39.21;95204.03;5068872;28;20192;-69
2021/06/23 08:49:50;;;;;;;44.93;10.50;;;;;;;31.72;38.39;95197.34;5069786;28;20566;-74
2021/06/23 08:52:18;;;;;;;46.73;10.93;;;;;;;31.68;38.17;95202.75;5087204;28;20210;-72
2021/06/23 08:54:53;;;;;;;49.00;11.57;;;;;;;31.70;41.09;95199.66;5089854;28;20195;-70
2021/06/23 08:57:20;;;;;;;42.57;11.33;;;;;;;31.95;41.21;95199.78;5075937;28;20282;-71
2021/06/23 08:59:47;;;;;;;48.87;12.20;;;;;;;32.00;40.76;95202.09;5090410;28;20557;-73
2021/06/23 09:02:16;;;;;;;42.47;12.17;;;;;;;32.11;39.86;95203.69;5090036;28;20206;-71
2021/06/23 09:05:00;;;;;;;43.83;9.23;;;;;;;32.02;37.48;95200.56;5083110;28;20195;-72
2021/06/23 09:07:53;;;;;;;45.00;9.87;;;;;;;32.12;38.48;95197.09;5070332;28;20203;-71
2021/06/23 09:10:23;;;;;;;39.93;9.67;;;;;;;32.17;37.48;95207.56;5081546;28;20274;-72
2021/06/23 09:13:08;;;;;;;43.70;9.53;;;;;;;32.20;37.80;95206.03;5086362;28;20204;-74
2021/06/23 09:15:54;;;;;;;39.13;8.80;;;;;;;32.15;37.70;95203.69;5082739;28;20227;-68
2021/06/23 09:18:39;;;;;;;42.83;9.17;;;;;;;32.27;38.04;95206.81;5077296;28;20230;-69
2021/06/23 09:21:15;;;;;;;41.23;9.03;;;;;;;32.57;37.27;95204.50;5077065;28;20653;-69
2021/06/23 09:23:59;;;;;;;39.27;8.30;;;;;;;32.55;37.17;95200.66;5090502;28;20293;-75
2021/06/23 09:26:34;;;;;;;42.17;10.63;;;;;;;32.51;35.82;95208.81;5090012;28;20195;-74
2021/06/23 09:29:09;;;;;;;43.53;8.93;;;;;;;32.33;34.95;95207.19;5089470;28;20679;-71
2021/06/23 09:31:59;;;;;;;35.90;8.43;;;;;;;32.37;34.57;95200.59;5089579;28;20219;-70
2021/06/23 09:34:26;;;;;;;35.70;8.67;;;;;;;32.22;35.02;95201.78;5089549;28;20302;-71
2021/06/23 09:36:54;;;;;;;46.13;8.53;;;;;;;32.33;35.89;95199.84;5089919;28;20218;-69
2021/06/23 09:39:23;;;;;;;34.33;7.97;;;;;;;32.52;36.14;95196.00;5081708;28;20196;-72
2021/06/23 09:41:52;;;;;;;33.87;8.30;;;;;;;32.70;34.82;95191.34;5083819;28;20203;-75
2021/06/23 09:44:19;;;;;;;36.90;8.00;;;;;;;32.87;34.95;95189.75;5076707;28;20202;-69
2021/06/23 09:46:47;;;;;;;40.47;7.93;;;;;;;32.91;34.96;95190.53;5090233;28;20199;-70
2021/06/23 09:49:21;;;;;;;43.00;8.53;;;;;;;32.99;35.80;95192.13;5093680;28;20294;-69
2021/06/23 09:51:50;;;;;;;40.80;9.47;;;;;;;33.32;34.17;95195.13;5093669;28;20206;-71
2021/06/23 09:54:19;;;;;;;36.00;8.53;;;;;;;33.06;33.89;95195.59;5079598;28;20205;-73
2021/06/23 09:57:10;;;;;;;32.73;7.40;;;;;;;33.44;34.17;95197.41;5093915;28;20206;-68
2021/06/23 09:59:44;;;;;;;40.40;8.60;;;;;;;33.47;34.03;95196.66;5086726;28;20192;-72
2021/06/23 10:02:20;;;;;;;29.67;7.43;;;;;;;33.74;33.89;95194.22;5087481;28;20191;-75
2021/06/23 10:04:47;;;;;;;43.03;8.17;;;;;;;33.76;33.80;95197.28;5093251;28;20206;-69
2021/06/23 10:07:41;;;;;;;35.43;7.63;;;;;;;33.56;34.04;95197.00;5094179;28;20578;-69
2021/06/23 10:10:11;;;;;;;39.37;7.43;;;;;;;33.38;33.20;95192.78;5082831;28;20257;-72
2021/06/23 10:12:38;;;;;;;42.67;8.47;;;;;;;33.40;33.98;95185.00;5091804;28;20730;-72
2021/06/23 10:15:05;;;;;;;35.37;7.63;;;;;;;33.35;35.08;95188.13;5093362;28;20191;-70
2021/06/23 10:17:33;;;;;;;42.53;7.67;;;;;;;33.63;33.83;95193.50;5093411;28;20195;-71
2021/06/23 10:20:02;;;;;;;38.73;8.27;;;;;;;33.83;32.17;95194.56;5093573;28;20207;-70
2021/06/23 10:22:31;;;;;;;43.00;7.93;;;;;;;33.04;32.90;95191.72;5093502;28;20207;-71
2021/06/23 10:25:03;;;;;;;36.63;7.47;;;;;;;32.66;33.38;95185.91;5081816;28;20207;-74
2021/06/23 10:27:33;;;;;;;34.80;7.50;;;;;;;33.14;33.97;95185.50;5091072;28;20573;-73
2021/06/23 10:30:00;;;;;;;36.17;7.57;;;;;;;32.66;32.80;95177.75;5093615;28;20325;-73
2021/06/23 10:32:27;;;;;;;36.80;8.20;;;;;;;32.82;33.39;95177.38;5093109;28;20282;-70
2021/06/23 10:34:54;;;;;;;36.50;8.83;;;;;;;33.43;35.03;95181.53;5092900;28;20191;-67
2021/06/23 10:37:23;;;;;;;36.57;8.33;;;;;;;34.00;35.09;95182.81;5077802;28;20665;-73
2021/06/23 10:39:51;;;;;;;36.87;7.97;;;;;;;34.05;33.47;95176.97;5071909;28;20700;-72
2021/06/23 10:42:24;;;;;;;38.63;7.93;;;;;;;33.76;33.24;95170.13;5094597;28;20219;-75
2021/06/23 10:44:55;;;;;;;38.47;8.50;;;;;;;33.98;32.81;95176.25;5093143;28;20355;-78
2021/06/23 10:47:34;;;;;;;36.83;9.07;;;;;;;34.49;32.66;95163.47;5074804;28;20210;-71
2021/06/23 10:50:08;;;;;;;39.37;8.80;;;;;;;34.65;32.13;95171.13;5084618;28;20252;-72
2021/06/23 10:52:35;;;;;;;30.37;7.57;;;;;;;34.75;30.06;95170.25;5092553;28;20738;-68
2021/06/23 10:55:27;;;;;;;37.13;7.73;;;;;;;34.81;31.62;95163.19;5083646;28;20196;-68
2021/06/23 10:58:02;;;;;;;38.70;8.60;;;;;;;35.07;31.83;95164.50;5078810;28;20204;-68
2021/06/23 11:00:32;;;;;;;34.00;7.23;;;;;;;34.70;31.59;95168.75;5091355;28;20212;-70
2021/06/23 11:03:02;;;;;;;30.73;7.67;;;;;;;34.59;31.07;95167.28;5082889;28;20199;-75
2021/06/23 11:05:36;;;;;;;30.53;7.07;;;;;;;34.94;31.06;95168.94;5079298;28;20344;-69
2021/06/23 11:08:27;;;;;;;33.50;8.67;;;;;;;35.12;31.23;95169.50;5079206;28;20658;-77
2021/06/23 11:10:56;;;;;;;35.37;8.80;;;;;;;35.07;30.62;95167.25;5092112;28;20237;-69
2021/06/23 11:13:30;;;;;;;29.93;7.87;;;;;;;35.00;30.41;95170.78;5088559;28;20198;-73
2021/06/23 11:15:58;;;;;;;37.23;7.87;;;;;;;35.45;30.33;95166.84;5081778;28;20224;-72
2021/06/23 11:18:31;;;;;;;31.13;8.40;;;;;;;35.21;30.24;95159.69;5099091;28;20226;-68
2021/06/23 11:21:05;;;;;;;31.70;8.13;;;;;;;35.05;30.71;95173.09;5083496;28;20229;-68
2021/06/23 11:23:53;;;;;;;36.20;8.77;;;;;;;35.35;29.61;95162.25;5093116;28;20207;-70
2021/06/23 11:26:23;;;;;;;40.43;9.27;;;;;;;35.33;29.92;95172.78;5092841;28;20583;-73
2021/06/23 11:29:18;;;;;;;36.30;8.87;;;;;;;34.91;30.00;95173.19;5091716;28;20664;-69
2021/06/23 11:31:58;;;;;;;35.13;7.83;;;;;;;34.57;29.57;95158.72;5094348;28;20230;-74
2021/06/23 11:34:53;;;;;;;37.87;8.63;;;;;;;34.45;30.76;95176.31;5097429;28;20183;-75
2021/06/23 11:37:24;;;;;;;32.17;9.07;;;;;;;34.34;29.92;95163.97;5091254;28;20314;-77
2021/06/23 11:40:07;;;;;;;34.53;9.03;;;;;;;33.94;31.31;95159.94;5089256;28;20199;-71
2021/06/23 11:42:34;;;;;;;38.10;8.27;;;;;;;33.86;30.91;95172.00;5081869;28;20202;-71
2021/06/23 11:45:01;;;;;;;34.77;8.97;;;;;;;34.18;31.24;95172.59;5092245;28;20271;-74
2021/06/23 11:47:28;;;;;;;39.33;9.30;;;;;;;34.33;30.76;95170.56;5086795;28;20195;-70
2021/06/23 11:49:55;;;;;;;48.53;9.70;;;;;;;34.74;30.57;95165.97;5082897;28;20183;-73
2021/06/23 11:52:22;;;;;;;39.40;9.67;;;;;;;34.90;29.59;95159.97;5074728;28;20261;-70
2021/06/23 11:54:49;;;;;;;39.43;10.00;;;;;;;34.66;29.20;95173.44;5083187;28;20641;-75
2021/06/23 11:57:16;;;;;;;40.27;8.87;;;;;;;34.41;29.63;95177.50;5091550;28;20239;-73
2021/06/23 11:59:44;;;;;;;35.93;9.57;;;;;;;34.30;30.18;95169.44;5083603;28;20666;-76
2021/06/23 12:02:11;;;;;;;42.00;9.10;;;;;;;34.24;29.82;95168.31;5085724;28;20206;-72